sensor_id;sensor_type;location;lat;lon;timestamp;pressure;altitude;pressure_sealevel;temperature
29423;BMP180;16399;51.686;8.684;2023-08-17T00:02:12;100108.00;;;18.00
29423;BMP180;16399;51.686;8.684;2023-08-17T00:05:14;100108.00;;;18.00
29423;BMP180;16399;51.686;8.684;2023-08-17T00:08:17;100105.00;;;18.00
29423;BMP180;16399;51.686;8.684;2023-08-17T00:11:19;100104.00;;;18.00
29423;BMP180;16399;51.686;8.684;2023-08-17T00:14:22;100110.00;;;18.00
29423;BMP180;16399;51.686;8.684;2023-08-17T00:17:24;100112.00;;;17.90
29423;BMP180;16399;51.686;8.684;2023-08-17T00:20:26;100118.00;;;17.90
29423;BMP180;16399;51.686;8.684;2023-08-17T00:23:28;100117.00;;;17.90
29423;BMP180;16399;51.686;8.684;2023-08-17T00:26:31;100115.00;;;18.00
29423;BMP180;16399;51.686;8.684;2023-08-17T00:29:33;100113.00;;;18.00
29423;BMP180;16399;51.686;8.684;2023-08-17T00:32:36;100119.00;;;18.00
29423;BMP180;16399;51.686;8.684;2023-08-17T00:35:39;100111.00;;;18.00
29423;BMP180;16399;51.686;8.684;2023-08-17T00:38:41;100109.00;;;18.00
29423;BMP180;16399;51.686;8.684;2023-08-17T00:41:43;100113.00;;;18.00
29423;BMP180;16399;51.686;8.684;2023-08-17T00:44:45;100112.00;;;18.00
29423;BMP180;16399;51.686;8.684;2023-08-17T00:47:48;100107.00;;;18.00
29423;BMP180;16399;51.686;8.684;2023-08-17T00:50:51;100119.00;;;18.00
29423;BMP180;16399;51.686;8.684;2023-08-17T00:53:57;100118.00;;;17.90
29423;BMP180;16399;51.686;8.684;2023-08-17T00:56:59;100119.00;;;17.90
29423;BMP180;16399;51.686;8.684;2023-08-17T01:00:03;100122.00;;;17.90
29423;BMP180;16399;51.686;8.684;2023-08-17T01:03:06;100122.00;;;17.90
29423;BMP180;16399;51.686;8.684;2023-08-17T01:06:09;100122.00;;;17.90
29423;BMP180;16399;51.686;8.684;2023-08-17T01:09:11;100124.00;;;17.90
29423;BMP180;16399;51.686;8.684;2023-08-17T01:15:35;100128.00;;;17.90
29423;BMP180;16399;51.686;8.684;2023-08-17T01:18:37;100139.00;;;17.90
29423;BMP180;16399;51.686;8.684;2023-08-17T01:21:43;100145.00;;;17.90
29423;BMP180;16399;51.686;8.684;2023-08-17T01:24:46;100142.00;;;17.90
29423;BMP180;16399;51.686;8.684;2023-08-17T01:31:28;100141.00;;;17.90
29423;BMP180;16399;51.686;8.684;2023-08-17T01:34:33;100137.00;;;17.90
29423;BMP180;16399;51.686;8.684;2023-08-17T01:37:37;100128.00;;;17.90
29423;BMP180;16399;51.686;8.684;2023-08-17T01:40:42;100127.00;;;17.90
29423;BMP180;16399;51.686;8.684;2023-08-17T01:43:45;100124.00;;;17.90
29423;BMP180;16399;51.686;8.684;2023-08-17T01:46:48;100130.00;;;17.90
29423;BMP180;16399;51.686;8.684;2023-08-17T01:49:51;100138.00;;;17.90
29423;BMP180;16399;51.686;8.684;2023-08-17T01:52:53;100132.00;;;17.90
29423;BMP180;16399;51.686;8.684;2023-08-17T01:55:55;100132.00;;;17.90
29423;BMP180;16399;51.686;8.684;2023-08-17T01:58:58;100134.00;;;17.90
29423;BMP180;16399;51.686;8.684;2023-08-17T02:02:00;100130.00;;;17.90
29423;BMP180;16399;51.686;8.684;2023-08-17T02:05:02;100137.00;;;17.90
29423;BMP180;16399;51.686;8.684;2023-08-17T02:08:05;100136.00;;;17.90
29423;BMP180;16399;51.686;8.684;2023-08-17T02:11:07;100130.00;;;17.90
29423;BMP180;16399;51.686;8.684;2023-08-17T02:14:11;100134.00;;;17.90
29423;BMP180;16399;51.686;8.684;2023-08-17T02:17:13;100140.00;;;17.90
29423;BMP180;16399;51.686;8.684;2023-08-17T02:20:17;100142.00;;;17.90
29423;BMP180;16399;51.686;8.684;2023-08-17T02:23:20;100147.00;;;17.90
29423;BMP180;16399;51.686;8.684;2023-08-17T02:26:22;100142.00;;;17.90
29423;BMP180;16399;51.686;8.684;2023-08-17T02:29:24;100143.00;;;17.90
29423;BMP180;16399;51.686;8.684;2023-08-17T02:32:26;100147.00;;;17.80
29423;BMP180;16399;51.686;8.684;2023-08-17T02:35:29;100151.00;;;17.70
29423;BMP180;16399;51.686;8.684;2023-08-17T02:38:31;100144.00;;;17.70
29423;BMP180;16399;51.686;8.684;2023-08-17T02:41:34;100144.00;;;17.60
29423;BMP180;16399;51.686;8.684;2023-08-17T02:44:36;100138.00;;;17.60
29423;BMP180;16399;51.686;8.684;2023-08-17T02:47:38;100131.00;;;17.50
29423;BMP180;16399;51.686;8.684;2023-08-17T02:50:40;100131.00;;;17.50
29423;BMP180;16399;51.686;8.684;2023-08-17T02:53:43;100130.00;;;17.40
29423;BMP180;16399;51.686;8.684;2023-08-17T02:56:45;100126.00;;;17.40
29423;BMP180;16399;51.686;8.684;2023-08-17T02:59:47;100131.00;;;17.30
29423;BMP180;16399;51.686;8.684;2023-08-17T03:02:50;100132.00;;;17.30
29423;BMP180;16399;51.686;8.684;2023-08-17T03:05:52;100123.00;;;17.20
29423;BMP180;16399;51.686;8.684;2023-08-17T03:08:54;100130.00;;;17.20
29423;BMP180;16399;51.686;8.684;2023-08-17T03:11:56;100130.00;;;17.20
29423;BMP180;16399;51.686;8.684;2023-08-17T03:14:59;100125.00;;;17.20
29423;BMP180;16399;51.686;8.684;2023-08-17T03:18:01;100120.00;;;17.20
29423;BMP180;16399;51.686;8.684;2023-08-17T03:21:03;100113.00;;;17.20
29423;BMP180;16399;51.686;8.684;2023-08-17T03:24:06;100126.00;;;17.20
29423;BMP180;16399;51.686;8.684;2023-08-17T03:27:08;100129.00;;;17.30
29423;BMP180;16399;51.686;8.684;2023-08-17T03:30:11;100129.00;;;17.30
29423;BMP180;16399;51.686;8.684;2023-08-17T03:33:13;100118.00;;;17.30
29423;BMP180;16399;51.686;8.684;2023-08-17T03:36:15;100117.00;;;17.30
29423;BMP180;16399;51.686;8.684;2023-08-17T03:39:18;100117.00;;;17.30
29423;BMP180;16399;51.686;8.684;2023-08-17T03:42:20;100116.00;;;17.30
29423;BMP180;16399;51.686;8.684;2023-08-17T03:45:22;100119.00;;;17.30
29423;BMP180;16399;51.686;8.684;2023-08-17T03:48:25;100116.00;;;17.30
29423;BMP180;16399;51.686;8.684;2023-08-17T03:51:27;100107.00;;;17.30
29423;BMP180;16399;51.686;8.684;2023-08-17T03:54:29;100114.00;;;17.20
29423;BMP180;16399;51.686;8.684;2023-08-17T03:57:31;100114.00;;;17.20
29423;BMP180;16399;51.686;8.684;2023-08-17T04:00:34;100108.00;;;17.20
29423;BMP180;16399;51.686;8.684;2023-08-17T04:03:36;100105.00;;;17.20
29423;BMP180;16399;51.686;8.684;2023-08-17T04:06:38;100105.00;;;17.20
29423;BMP180;16399;51.686;8.684;2023-08-17T04:09:43;100107.00;;;17.20
29423;BMP180;16399;51.686;8.684;2023-08-17T04:12:46;100092.00;;;17.20
29423;BMP180;16399;51.686;8.684;2023-08-17T04:15:48;100102.00;;;17.30
29423;BMP180;16399;51.686;8.684;2023-08-17T04:18:50;100094.00;;;17.30
29423;BMP180;16399;51.686;8.684;2023-08-17T04:21:53;100091.00;;;17.30
29423;BMP180;16399;51.686;8.684;2023-08-17T04:24:56;100087.00;;;17.30
29423;BMP180;16399;51.686;8.684;2023-08-17T04:27:59;100082.00;;;17.40
29423;BMP180;16399;51.686;8.684;2023-08-17T04:31:01;100089.00;;;17.40
29423;BMP180;16399;51.686;8.684;2023-08-17T04:34:03;100090.00;;;17.40
29423;BMP180;16399;51.686;8.684;2023-08-17T04:37:05;100093.00;;;17.30
29423;BMP180;16399;51.686;8.684;2023-08-17T04:40:08;100093.00;;;17.30
29423;BMP180;16399;51.686;8.684;2023-08-17T04:43:11;100105.00;;;17.30
29423;BMP180;16399;51.686;8.684;2023-08-17T04:46:14;100116.00;;;17.30
29423;BMP180;16399;51.686;8.684;2023-08-17T04:49:16;100109.00;;;17.30
29423;BMP180;16399;51.686;8.684;2023-08-17T04:52:18;100104.00;;;17.30
29423;BMP180;16399;51.686;8.684;2023-08-17T04:55:20;100120.00;;;17.20
29423;BMP180;16399;51.686;8.684;2023-08-17T04:58:23;100119.00;;;17.20
29423;BMP180;16399;51.686;8.684;2023-08-17T05:01:25;100120.00;;;17.20
29423;BMP180;16399;51.686;8.684;2023-08-17T05:04:29;100122.00;;;17.20
29423;BMP180;16399;51.686;8.684;2023-08-17T05:07:31;100116.00;;;17.20
29423;BMP180;16399;51.686;8.684;2023-08-17T05:10:34;100124.00;;;17.20
29423;BMP180;16399;51.686;8.684;2023-08-17T05:13:36;100118.00;;;17.20
29423;BMP180;16399;51.686;8.684;2023-08-17T05:16:38;100118.00;;;17.20
29423;BMP180;16399;51.686;8.684;2023-08-17T05:19:40;100124.00;;;17.20
29423;BMP180;16399;51.686;8.684;2023-08-17T05:22:43;100125.00;;;17.20
29423;BMP180;16399;51.686;8.684;2023-08-17T05:25:48;100121.00;;;17.20
29423;BMP180;16399;51.686;8.684;2023-08-17T05:28:50;100138.00;;;17.20
29423;BMP180;16399;51.686;8.684;2023-08-17T05:31:52;100133.00;;;17.20
29423;BMP180;16399;51.686;8.684;2023-08-17T05:34:56;100135.00;;;17.20
29423;BMP180;16399;51.686;8.684;2023-08-17T05:37:58;100133.00;;;17.20
29423;BMP180;16399;51.686;8.684;2023-08-17T05:41:01;100132.00;;;17.20
29423;BMP180;16399;51.686;8.684;2023-08-17T05:44:03;100140.00;;;17.20
29423;BMP180;16399;51.686;8.684;2023-08-17T05:47:07;100134.00;;;17.20
29423;BMP180;16399;51.686;8.684;2023-08-17T05:50:10;100141.00;;;17.20
29423;BMP180;16399;51.686;8.684;2023-08-17T05:53:12;100147.00;;;17.20
29423;BMP180;16399;51.686;8.684;2023-08-17T05:56:14;100136.00;;;17.20
29423;BMP180;16399;51.686;8.684;2023-08-17T05:59:16;100142.00;;;17.20
29423;BMP180;16399;51.686;8.684;2023-08-17T06:02:19;100139.00;;;17.20
29423;BMP180;16399;51.686;8.684;2023-08-17T06:05:23;100141.00;;;17.20
29423;BMP180;16399;51.686;8.684;2023-08-17T06:08:27;100148.00;;;17.20
29423;BMP180;16399;51.686;8.684;2023-08-17T06:11:29;100149.00;;;17.20
29423;BMP180;16399;51.686;8.684;2023-08-17T06:14:33;100155.00;;;17.20
29423;BMP180;16399;51.686;8.684;2023-08-17T06:17:35;100164.00;;;17.20
29423;BMP180;16399;51.686;8.684;2023-08-17T06:20:37;100159.00;;;17.20
29423;BMP180;16399;51.686;8.684;2023-08-17T06:23:40;100153.00;;;17.20
29423;BMP180;16399;51.686;8.684;2023-08-17T06:26:42;100150.00;;;17.20
29423;BMP180;16399;51.686;8.684;2023-08-17T06:29:45;100149.00;;;17.20
29423;BMP180;16399;51.686;8.684;2023-08-17T06:32:47;100150.00;;;17.20
29423;BMP180;16399;51.686;8.684;2023-08-17T06:35:50;100158.00;;;17.20
29423;BMP180;16399;51.686;8.684;2023-08-17T06:38:52;100155.00;;;17.20
29423;BMP180;16399;51.686;8.684;2023-08-17T06:41:55;100148.00;;;17.20
29423;BMP180;16399;51.686;8.684;2023-08-17T06:44:57;100160.00;;;17.20
29423;BMP180;16399;51.686;8.684;2023-08-17T06:47:59;100149.00;;;17.30
29423;BMP180;16399;51.686;8.684;2023-08-17T06:51:02;100149.00;;;17.30
29423;BMP180;16399;51.686;8.684;2023-08-17T06:54:07;100147.00;;;17.30
29423;BMP180;16399;51.686;8.684;2023-08-17T06:57:10;100149.00;;;17.40
29423;BMP180;16399;51.686;8.684;2023-08-17T07:00:12;100154.00;;;17.40
29423;BMP180;16399;51.686;8.684;2023-08-17T07:03:14;100152.00;;;17.40
29423;BMP180;16399;51.686;8.684;2023-08-17T07:06:17;100151.00;;;17.40
29423;BMP180;16399;51.686;8.684;2023-08-17T07:09:20;100134.00;;;17.40
29423;BMP180;16399;51.686;8.684;2023-08-17T07:12:22;100148.00;;;17.50
29423;BMP180;16399;51.686;8.684;2023-08-17T07:15:25;100164.00;;;17.50
29423;BMP180;16399;51.686;8.684;2023-08-17T07:18:27;100154.00;;;17.60
29423;BMP180;16399;51.686;8.684;2023-08-17T07:21:30;100154.00;;;17.60
29423;BMP180;16399;51.686;8.684;2023-08-17T07:24:32;100157.00;;;17.60
29423;BMP180;16399;51.686;8.684;2023-08-17T07:27:34;100148.00;;;17.60
29423;BMP180;16399;51.686;8.684;2023-08-17T07:30:36;100164.00;;;17.60
29423;BMP180;16399;51.686;8.684;2023-08-17T07:33:39;100159.00;;;17.60
29423;BMP180;16399;51.686;8.684;2023-08-17T07:36:42;100175.00;;;17.70
29423;BMP180;16399;51.686;8.684;2023-08-17T07:39:44;100160.00;;;17.70
29423;BMP180;16399;51.686;8.684;2023-08-17T07:42:46;100170.00;;;17.70
29423;BMP180;16399;51.686;8.684;2023-08-17T07:45:56;100164.00;;;17.80
29423;BMP180;16399;51.686;8.684;2023-08-17T07:48:59;100170.00;;;17.90
29423;BMP180;16399;51.686;8.684;2023-08-17T07:52:01;100164.00;;;18.00
29423;BMP180;16399;51.686;8.684;2023-08-17T07:55:03;100172.00;;;18.00
29423;BMP180;16399;51.686;8.684;2023-08-17T07:58:06;100152.00;;;18.10
29423;BMP180;16399;51.686;8.684;2023-08-17T08:01:08;100160.00;;;18.20
29423;BMP180;16399;51.686;8.684;2023-08-17T08:04:11;100164.00;;;18.30
29423;BMP180;16399;51.686;8.684;2023-08-17T08:07:13;100178.00;;;18.30
29423;BMP180;16399;51.686;8.684;2023-08-17T08:10:16;100173.00;;;18.40
29423;BMP180;16399;51.686;8.684;2023-08-17T08:13:18;100181.00;;;18.40
29423;BMP180;16399;51.686;8.684;2023-08-17T08:16:20;100184.00;;;18.40
29423;BMP180;16399;51.686;8.684;2023-08-17T08:19:22;100185.00;;;18.50
29423;BMP180;16399;51.686;8.684;2023-08-17T08:22:25;100181.00;;;18.50
29423;BMP180;16399;51.686;8.684;2023-08-17T08:25:27;100188.00;;;18.60
29423;BMP180;16399;51.686;8.684;2023-08-17T08:28:29;100179.00;;;18.60
29423;BMP180;16399;51.686;8.684;2023-08-17T08:31:32;100163.00;;;18.60
29423;BMP180;16399;51.686;8.684;2023-08-17T08:34:34;100169.00;;;18.70
29423;BMP180;16399;51.686;8.684;2023-08-17T08:37:36;100172.00;;;18.70
29423;BMP180;16399;51.686;8.684;2023-08-17T08:40:40;100174.00;;;18.80
29423;BMP180;16399;51.686;8.684;2023-08-17T08:43:42;100176.00;;;18.80
29423;BMP180;16399;51.686;8.684;2023-08-17T08:46:46;100166.00;;;18.80
29423;BMP180;16399;51.686;8.684;2023-08-17T08:49:59;100173.00;;;18.90
29423;BMP180;16399;51.686;8.684;2023-08-17T08:53:03;100174.00;;;18.90
29423;BMP180;16399;51.686;8.684;2023-08-17T08:56:10;100173.00;;;18.90
29423;BMP180;16399;51.686;8.684;2023-08-17T08:59:14;100168.00;;;18.90
29423;BMP180;16399;51.686;8.684;2023-08-17T09:02:16;100173.00;;;18.90
29423;BMP180;16399;51.686;8.684;2023-08-17T09:05:19;100179.00;;;19.00
29423;BMP180;16399;51.686;8.684;2023-08-17T09:08:25;100174.00;;;19.00
29423;BMP180;16399;51.686;8.684;2023-08-17T09:11:26;100171.00;;;19.00
29423;BMP180;16399;51.686;8.684;2023-08-17T09:14:29;100173.00;;;19.00
29423;BMP180;16399;51.686;8.684;2023-08-17T09:17:32;100175.00;;;19.10
29423;BMP180;16399;51.686;8.684;2023-08-17T09:20:40;100173.00;;;19.10
29423;BMP180;16399;51.686;8.684;2023-08-17T09:23:42;100170.00;;;19.10
29423;BMP180;16399;51.686;8.684;2023-08-17T09:26:45;100173.00;;;19.10
29423;BMP180;16399;51.686;8.684;2023-08-17T09:29:47;100170.00;;;19.10
29423;BMP180;16399;51.686;8.684;2023-08-17T09:32:49;100168.00;;;19.10
29423;BMP180;16399;51.686;8.684;2023-08-17T09:35:53;100177.00;;;19.10
29423;BMP180;16399;51.686;8.684;2023-08-17T09:38:55;100172.00;;;19.00
29423;BMP180;16399;51.686;8.684;2023-08-17T09:41:59;100173.00;;;19.00
29423;BMP180;16399;51.686;8.684;2023-08-17T09:45:02;100170.00;;;18.90
29423;BMP180;16399;51.686;8.684;2023-08-17T09:48:06;100174.00;;;18.80
29423;BMP180;16399;51.686;8.684;2023-08-17T09:51:09;100177.00;;;18.80
29423;BMP180;16399;51.686;8.684;2023-08-17T09:54:22;100167.00;;;18.80
29423;BMP180;16399;51.686;8.684;2023-08-17T09:57:24;100173.00;;;18.70
29423;BMP180;16399;51.686;8.684;2023-08-17T10:00:27;100174.00;;;18.70
29423;BMP180;16399;51.686;8.684;2023-08-17T10:03:32;100168.00;;;18.70
29423;BMP180;16399;51.686;8.684;2023-08-17T10:06:37;100164.00;;;18.80
29423;BMP180;16399;51.686;8.684;2023-08-17T10:09:43;100160.00;;;18.80
29423;BMP180;16399;51.686;8.684;2023-08-17T10:12:56;100155.00;;;18.80
29423;BMP180;16399;51.686;8.684;2023-08-17T10:16:09;100168.00;;;18.80
29423;BMP180;16399;51.686;8.684;2023-08-17T10:22:38;100173.00;;;18.80
29423;BMP180;16399;51.686;8.684;2023-08-17T10:25:36;100165.00;;;18.80
29423;BMP180;16399;51.686;8.684;2023-08-17T10:28:39;100162.00;;;18.90
29423;BMP180;16399;51.686;8.684;2023-08-17T10:31:44;100176.00;;;18.90
29423;BMP180;16399;51.686;8.684;2023-08-17T10:34:51;100171.00;;;18.90
29423;BMP180;16399;51.686;8.684;2023-08-17T10:37:54;100170.00;;;19.00
29423;BMP180;16399;51.686;8.684;2023-08-17T10:41:13;100174.00;;;19.00
29423;BMP180;16399;51.686;8.684;2023-08-17T10:47:36;100167.00;;;19.20
29423;BMP180;16399;51.686;8.684;2023-08-17T10:50:39;100166.00;;;19.30
29423;BMP180;16399;51.686;8.684;2023-08-17T10:53:43;100165.00;;;19.40
29423;BMP180;16399;51.686;8.684;2023-08-17T10:56:46;100175.00;;;19.50
29423;BMP180;16399;51.686;8.684;2023-08-17T11:00:05;100178.00;;;19.60
29423;BMP180;16399;51.686;8.684;2023-08-17T11:03:20;100175.00;;;19.70
29423;BMP180;16399;51.686;8.684;2023-08-17T11:06:16;100185.00;;;19.80
29423;BMP180;16399;51.686;8.684;2023-08-17T11:09:21;100183.00;;;19.90
29423;BMP180;16399;51.686;8.684;2023-08-17T11:12:27;100170.00;;;19.90
29423;BMP180;16399;51.686;8.684;2023-08-17T11:15:39;100181.00;;;20.10
29423;BMP180;16399;51.686;8.684;2023-08-17T11:18:43;100183.00;;;20.10
29423;BMP180;16399;51.686;8.684;2023-08-17T11:21:45;100189.00;;;20.20
29423;BMP180;16399;51.686;8.684;2023-08-17T11:24:48;100190.00;;;20.10
29423;BMP180;16399;51.686;8.684;2023-08-17T11:27:51;100194.00;;;20.10
29423;BMP180;16399;51.686;8.684;2023-08-17T11:30:58;100196.00;;;20.10
29423;BMP180;16399;51.686;8.684;2023-08-17T11:34:01;100198.00;;;20.00
29423;BMP180;16399;51.686;8.684;2023-08-17T11:37:04;100198.00;;;20.00
29423;BMP180;16399;51.686;8.684;2023-08-17T11:40:07;100198.00;;;20.00
29423;BMP180;16399;51.686;8.684;2023-08-17T11:43:11;100191.00;;;19.90
29423;BMP180;16399;51.686;8.684;2023-08-17T11:46:13;100185.00;;;19.90
29423;BMP180;16399;51.686;8.684;2023-08-17T11:49:17;100185.00;;;19.90
29423;BMP180;16399;51.686;8.684;2023-08-17T11:52:19;100182.00;;;19.80
29423;BMP180;16399;51.686;8.684;2023-08-17T11:55:22;100180.00;;;19.80
29423;BMP180;16399;51.686;8.684;2023-08-17T11:58:42;100177.00;;;19.80
29423;BMP180;16399;51.686;8.684;2023-08-17T12:01:45;100180.00;;;19.90
29423;BMP180;16399;51.686;8.684;2023-08-17T12:04:48;100177.00;;;19.90
29423;BMP180;16399;51.686;8.684;2023-08-17T12:07:52;100165.00;;;20.00
29423;BMP180;16399;51.686;8.684;2023-08-17T12:10:54;100170.00;;;20.10
29423;BMP180;16399;51.686;8.684;2023-08-17T12:13:56;100172.00;;;20.10
29423;BMP180;16399;51.686;8.684;2023-08-17T12:17:00;100169.00;;;20.20
29423;BMP180;16399;51.686;8.684;2023-08-17T12:20:02;100144.00;;;20.30
29423;BMP180;16399;51.686;8.684;2023-08-17T12:23:05;100174.00;;;20.40
29423;BMP180;16399;51.686;8.684;2023-08-17T12:26:08;100163.00;;;20.50
29423;BMP180;16399;51.686;8.684;2023-08-17T12:29:10;100162.00;;;20.60
29423;BMP180;16399;51.686;8.684;2023-08-17T12:32:14;100160.00;;;20.70
29423;BMP180;16399;51.686;8.684;2023-08-17T12:35:18;100160.00;;;20.70
29423;BMP180;16399;51.686;8.684;2023-08-17T12:38:27;100163.00;;;20.70
29423;BMP180;16399;51.686;8.684;2023-08-17T12:41:26;100154.00;;;20.70
29423;BMP180;16399;51.686;8.684;2023-08-17T12:44:28;100167.00;;;20.70
29423;BMP180;16399;51.686;8.684;2023-08-17T12:47:31;100157.00;;;20.70
29423;BMP180;16399;51.686;8.684;2023-08-17T12:50:33;100162.00;;;20.70
29423;BMP180;16399;51.686;8.684;2023-08-17T12:53:35;100153.00;;;20.70
29423;BMP180;16399;51.686;8.684;2023-08-17T12:56:38;100163.00;;;20.80
29423;BMP180;16399;51.686;8.684;2023-08-17T12:59:40;100152.00;;;20.80
29423;BMP180;16399;51.686;8.684;2023-08-17T13:02:42;100154.00;;;20.80
29423;BMP180;16399;51.686;8.684;2023-08-17T13:05:46;100139.00;;;20.90
29423;BMP180;16399;51.686;8.684;2023-08-17T13:08:48;100165.00;;;21.00
29423;BMP180;16399;51.686;8.684;2023-08-17T13:11:51;100157.00;;;21.00
29423;BMP180;16399;51.686;8.684;2023-08-17T13:14:53;100165.00;;;21.10
29423;BMP180;16399;51.686;8.684;2023-08-17T13:17:55;100157.00;;;21.10
29423;BMP180;16399;51.686;8.684;2023-08-17T13:24:21;100160.00;;;21.00
29423;BMP180;16399;51.686;8.684;2023-08-17T13:27:23;100153.00;;;21.00
29423;BMP180;16399;51.686;8.684;2023-08-17T13:30:25;100165.00;;;20.90
29423;BMP180;16399;51.686;8.684;2023-08-17T13:33:27;100164.00;;;20.80
29423;BMP180;16399;51.686;8.684;2023-08-17T13:36:30;100169.00;;;20.80
29423;BMP180;16399;51.686;8.684;2023-08-17T13:39:32;100156.00;;;20.70
29423;BMP180;16399;51.686;8.684;2023-08-17T13:42:34;100153.00;;;20.70
29423;BMP180;16399;51.686;8.684;2023-08-17T13:45:39;100152.00;;;20.70
29423;BMP180;16399;51.686;8.684;2023-08-17T13:48:44;100147.00;;;20.80
29423;BMP180;16399;51.686;8.684;2023-08-17T13:51:46;100155.00;;;20.80
29423;BMP180;16399;51.686;8.684;2023-08-17T13:54:48;100151.00;;;20.80
29423;BMP180;16399;51.686;8.684;2023-08-17T13:57:52;100156.00;;;20.80
29423;BMP180;16399;51.686;8.684;2023-08-17T14:00:57;100155.00;;;20.80
29423;BMP180;16399;51.686;8.684;2023-08-17T14:04:01;100155.00;;;20.80
29423;BMP180;16399;51.686;8.684;2023-08-17T14:07:04;100164.00;;;20.80
29423;BMP180;16399;51.686;8.684;2023-08-17T14:10:07;100161.00;;;20.80
29423;BMP180;16399;51.686;8.684;2023-08-17T14:13:09;100171.00;;;20.80
29423;BMP180;16399;51.686;8.684;2023-08-17T14:16:12;100154.00;;;20.80
29423;BMP180;16399;51.686;8.684;2023-08-17T14:19:14;100154.00;;;20.90
29423;BMP180;16399;51.686;8.684;2023-08-17T14:22:16;100159.00;;;20.90
29423;BMP180;16399;51.686;8.684;2023-08-17T14:25:18;100158.00;;;20.90
29423;BMP180;16399;51.686;8.684;2023-08-17T14:28:21;100149.00;;;20.90
29423;BMP180;16399;51.686;8.684;2023-08-17T14:31:23;100147.00;;;20.90
29423;BMP180;16399;51.686;8.684;2023-08-17T14:34:25;100148.00;;;20.90
29423;BMP180;16399;51.686;8.684;2023-08-17T14:37:28;100152.00;;;20.90
29423;BMP180;16399;51.686;8.684;2023-08-17T14:40:30;100151.00;;;20.90
29423;BMP180;16399;51.686;8.684;2023-08-17T14:43:32;100144.00;;;21.00
29423;BMP180;16399;51.686;8.684;2023-08-17T14:46:34;100141.00;;;21.00
29423;BMP180;16399;51.686;8.684;2023-08-17T14:49:38;100142.00;;;21.00
29423;BMP180;16399;51.686;8.684;2023-08-17T14:52:41;100141.00;;;21.00
29423;BMP180;16399;51.686;8.684;2023-08-17T14:55:43;100147.00;;;21.00
29423;BMP180;16399;51.686;8.684;2023-08-17T14:58:46;100146.00;;;21.00
29423;BMP180;16399;51.686;8.684;2023-08-17T15:01:48;100147.00;;;21.00
29423;BMP180;16399;51.686;8.684;2023-08-17T15:04:52;100146.00;;;20.90
29423;BMP180;16399;51.686;8.684;2023-08-17T15:07:55;100147.00;;;20.90
29423;BMP180;16399;51.686;8.684;2023-08-17T15:10:58;100135.00;;;20.90
29423;BMP180;16399;51.686;8.684;2023-08-17T15:14:02;100134.00;;;20.90
29423;BMP180;16399;51.686;8.684;2023-08-17T15:17:04;100125.00;;;20.90
29423;BMP180;16399;51.686;8.684;2023-08-17T15:20:07;100132.00;;;20.80
29423;BMP180;16399;51.686;8.684;2023-08-17T15:23:11;100128.00;;;20.80
29423;BMP180;16399;51.686;8.684;2023-08-17T15:26:14;100129.00;;;20.80
29423;BMP180;16399;51.686;8.684;2023-08-17T15:29:16;100116.00;;;20.70
29423;BMP180;16399;51.686;8.684;2023-08-17T15:32:18;100113.00;;;20.70
29423;BMP180;16399;51.686;8.684;2023-08-17T15:35:21;100108.00;;;20.60
29423;BMP180;16399;51.686;8.684;2023-08-17T15:38:24;100103.00;;;20.50
29423;BMP180;16399;51.686;8.684;2023-08-17T15:41:26;100110.00;;;20.50
29423;BMP180;16399;51.686;8.684;2023-08-17T15:44:28;100108.00;;;20.50
29423;BMP180;16399;51.686;8.684;2023-08-17T15:47:33;100107.00;;;20.40
29423;BMP180;16399;51.686;8.684;2023-08-17T15:50:35;100117.00;;;20.40
29423;BMP180;16399;51.686;8.684;2023-08-17T15:53:38;100114.00;;;20.30
29423;BMP180;16399;51.686;8.684;2023-08-17T15:56:42;100121.00;;;20.20
29423;BMP180;16399;51.686;8.684;2023-08-17T15:59:44;100117.00;;;20.10
29423;BMP180;16399;51.686;8.684;2023-08-17T16:02:48;100106.00;;;20.00
29423;BMP180;16399;51.686;8.684;2023-08-17T16:05:50;100104.00;;;20.00
29423;BMP180;16399;51.686;8.684;2023-08-17T16:08:52;100111.00;;;19.90
29423;BMP180;16399;51.686;8.684;2023-08-17T16:11:55;100112.00;;;19.90
29423;BMP180;16399;51.686;8.684;2023-08-17T16:14:57;100114.00;;;19.80
29423;BMP180;16399;51.686;8.684;2023-08-17T16:18:00;100124.00;;;19.70
29423;BMP180;16399;51.686;8.684;2023-08-17T16:21:02;100118.00;;;19.70
29423;BMP180;16399;51.686;8.684;2023-08-17T16:24:04;100115.00;;;19.60
29423;BMP180;16399;51.686;8.684;2023-08-17T16:27:07;100116.00;;;19.50
29423;BMP180;16399;51.686;8.684;2023-08-17T16:30:09;100117.00;;;19.50
29423;BMP180;16399;51.686;8.684;2023-08-17T16:33:12;100118.00;;;19.50
29423;BMP180;16399;51.686;8.684;2023-08-17T16:36:14;100107.00;;;19.50
29423;BMP180;16399;51.686;8.684;2023-08-17T16:39:16;100101.00;;;19.40
29423;BMP180;16399;51.686;8.684;2023-08-17T16:42:19;100112.00;;;19.40
29423;BMP180;16399;51.686;8.684;2023-08-17T16:45:21;100122.00;;;19.40
29423;BMP180;16399;51.686;8.684;2023-08-17T16:48:23;100120.00;;;19.40
29423;BMP180;16399;51.686;8.684;2023-08-17T16:51:25;100119.00;;;19.40
29423;BMP180;16399;51.686;8.684;2023-08-17T16:54:28;100124.00;;;19.40
29423;BMP180;16399;51.686;8.684;2023-08-17T16:57:30;100130.00;;;19.40
29423;BMP180;16399;51.686;8.684;2023-08-17T17:00:32;100135.00;;;19.40
29423;BMP180;16399;51.686;8.684;2023-08-17T17:03:35;100127.00;;;19.40
29423;BMP180;16399;51.686;8.684;2023-08-17T17:06:38;100125.00;;;19.30
29423;BMP180;16399;51.686;8.684;2023-08-17T17:09:40;100129.00;;;19.30
29423;BMP180;16399;51.686;8.684;2023-08-17T17:12:42;100138.00;;;19.30
29423;BMP180;16399;51.686;8.684;2023-08-17T17:15:44;100138.00;;;19.30
29423;BMP180;16399;51.686;8.684;2023-08-17T17:18:47;100140.00;;;19.30
29423;BMP180;16399;51.686;8.684;2023-08-17T17:21:49;100140.00;;;19.30
29423;BMP180;16399;51.686;8.684;2023-08-17T17:24:52;100144.00;;;19.20
29423;BMP180;16399;51.686;8.684;2023-08-17T17:27:54;100143.00;;;19.20
29423;BMP180;16399;51.686;8.684;2023-08-17T17:30:56;100141.00;;;19.20
29423;BMP180;16399;51.686;8.684;2023-08-17T17:33:58;100140.00;;;19.10
29423;BMP180;16399;51.686;8.684;2023-08-17T17:37:01;100140.00;;;19.10